Time;durP1;ratioP1;P1;durP2;ratioP2;P2;SDS_P1;SDS_P2;PMS_P1;PMS_P2;Temp;Humidity;BMP_temperature;BMP_pressure;BME280_temperature;BME280_humidity;BME280_pressure;Samples;Min_cycle;Max_cycle;Signal;HPM_P1;HPM_P2
2021/06/05 00:01:25;;;;;;;;;;;17.20;99.90;;;;;;5022944;28;19932;-70
2021/06/05 00:03:53;;;;;;;;;;;17.20;99.90;;;;;;5027429;28;19932;-70
2021/06/05 00:09:13;;;;;;;;;;;17.10;99.90;;;;;;5030448;28;20401;-70
2021/06/05 00:11:41;;;;;;;;;;;17.10;99.90;;;;;;5026243;28;20031;-69
2021/06/05 00:14:10;;;;;;;;;;;16.90;99.90;;;;;;5028082;28;20380;-70
2021/06/05 00:16:41;;;;;;;;;;;16.80;99.90;;;;;;5008269;28;19956;-70
2021/06/05 00:19:10;;;;;;;;;;;16.70;99.90;;;;;;5035702;28;19964;-70
2021/06/05 00:21:38;;;;;;;;;;;16.70;99.90;;;;;;5016330;28;19929;-70
2021/06/05 00:24:07;;;;;;;;;;;16.70;99.90;;;;;;5010796;28;19988;-70
2021/06/05 00:26:35;;;;;;;;;;;16.70;99.90;;;;;;5033245;28;19979;-70
2021/06/05 00:29:03;;;;;;;;;;;16.60;99.90;;;;;;5024752;28;19932;-70
2021/06/05 00:31:31;;;;;;;;;;;16.60;99.90;;;;;;5022456;28;19999;-70
2021/06/05 00:34:01;;;;;;;;;;;16.60;99.90;;;;;;5030463;28;19933;-72
2021/06/05 00:36:29;;;;;;;;;;;16.50;99.90;;;;;;5031736;28;19925;-72
2021/06/05 00:38:57;;;;;;;;;;;16.50;99.90;;;;;;5033521;28;19936;-72
2021/06/05 00:41:26;;;;;;;;;;;16.40;99.90;;;;;;5033341;28;19971;-72
2021/06/05 00:43:56;;;;;;;;;;;16.30;99.90;;;;;;5015037;28;19929;-72
2021/06/05 00:46:25;;;;;;;;;;;16.30;99.90;;;;;;5004884;28;20401;-72
2021/06/05 00:48:54;;;;;;;;;;;16.20;99.90;;;;;;5034259;28;19925;-73
2021/06/05 00:51:30;;;;;;;;;;;16.20;99.90;;;;;;5012191;28;19929;-72
2021/06/05 00:53:59;;;;;;;;;;;16.10;99.90;;;;;;5009917;28;19941;-72
2021/06/05 00:56:27;;;;;;;;;;;16.10;99.90;;;;;;5022484;28;19924;-72
2021/06/05 00:58:55;;;;;;;;;;;16.10;99.90;;;;;;5026648;28;19929;-72
2021/06/05 01:01:25;;;;;;;;;;;16.10;99.90;;;;;;5026337;28;19929;-72
2021/06/05 01:03:55;;;;;;;;;;;16.10;99.90;;;;;;5012734;28;19926;-72
2021/06/05 01:06:28;;;;;;;;;;;16.10;99.90;;;;;;5011477;28;19932;-72
2021/06/05 01:08:59;;;;;;;;;;;16.10;99.90;;;;;;5025773;28;19940;-72
2021/06/05 01:11:34;;;;;;;;;;;16.10;99.90;;;;;;5031183;28;19961;-71
2021/06/05 01:14:05;;;;;;;;;;;16.20;99.90;;;;;;5030776;28;19925;-72
2021/06/05 01:16:33;;;;;;;;;;;16.10;99.90;;;;;;5005732;28;19932;-72
2021/06/05 01:19:05;;;;;;;;;;;16.10;99.90;;;;;;5012670;28;19948;-72
2021/06/05 01:21:51;;;;;;;;;;;16.20;99.90;;;;;;5019256;28;19959;-72
2021/06/05 01:24:43;;;;;;;;;;;15.90;99.90;;;;;;5021137;28;20604;-71
2021/06/05 01:27:15;;;;;;;;;;;15.90;99.90;;;;;;5016608;28;19925;-71
2021/06/05 01:29:44;;;;;;;;;;;15.90;99.90;;;;;;5016056;28;19933;-72
2021/06/05 01:32:14;;;;;;;;;;;15.90;99.90;;;;;;5010013;28;20333;-72
2021/06/05 01:34:43;;;;;;;;;;;15.80;99.90;;;;;;5032235;28;19979;-72
2021/06/05 01:37:16;;;;;;;;;;;15.60;99.90;;;;;;5007528;28;19929;-72
2021/06/05 01:39:52;;;;;;;;;;;15.50;99.90;;;;;;5027775;28;20352;-72
2021/06/05 01:42:47;;;;;;;;;;;15.60;99.90;;;;;;5034272;28;19925;-71
2021/06/05 01:45:25;;;;;;;;;;;15.60;99.90;;;;;;4991506;28;20291;-72
2021/06/05 01:47:54;;;;;;;;;;;15.60;99.90;;;;;;5006561;28;19926;-72
2021/06/05 01:50:24;;;;;;;;;;;15.60;99.90;;;;;;5016115;28;19925;-72
2021/06/05 01:52:52;;;;;;;;;;;15.50;99.90;;;;;;5027921;28;19980;-71
2021/06/05 01:55:25;;;;;;;;;;;15.50;99.90;;;;;;5035863;28;19925;-72
2021/06/05 01:57:55;;;;;;;;;;;15.50;99.90;;;;;;5018148;28;19925;-71
2021/06/05 02:00:41;;;;;;;;;;;15.40;99.90;;;;;;5000624;28;20456;-72
2021/06/05 02:03:11;;;;;;;;;;;15.50;99.90;;;;;;5022601;28;20012;-72
2021/06/05 02:05:44;;;;;;;;;;;15.60;99.90;;;;;;5007845;28;19933;-72
2021/06/05 02:08:19;;;;;;;;;;;15.60;99.90;;;;;;5032878;28;19932;-71
2021/06/05 02:10:48;;;;;;;;;;;15.70;99.90;;;;;;5018596;28;19925;-71
2021/06/05 02:13:17;;;;;;;;;;;15.70;99.90;;;;;;5028596;28;20351;-72
2021/06/05 02:15:58;;;;;;;;;;;15.60;99.90;;;;;;5002863;28;19933;-71
2021/06/05 02:18:33;;;;;;;;;;;15.50;99.90;;;;;;5022326;28;19937;-71
2021/06/05 02:21:33;;;;;;;;;;;15.50;99.90;;;;;;5028947;28;19924;-72
2021/06/05 02:24:03;;;;;;;;;;;15.40;99.90;;;;;;5009616;28;19929;-72
2021/06/05 02:26:33;;;;;;;;;;;15.40;99.90;;;;;;5033705;28;19925;-71
2021/06/05 02:29:16;;;;;;;;;;;15.40;99.90;;;;;;5010717;28;19933;-71
2021/06/05 02:31:48;;;;;;;;;;;15.40;99.90;;;;;;5018598;28;19930;-72
2021/06/05 02:34:19;;;;;;;;;;;15.40;99.90;;;;;;5010594;28;19925;-72
2021/06/05 02:36:49;;;;;;;;;;;15.30;99.90;;;;;;5032429;28;19947;-72
2021/06/05 02:39:19;;;;;;;;;;;15.30;99.90;;;;;;5012978;28;19952;-72
2021/06/05 02:41:53;;;;;;;;;;;15.30;99.90;;;;;;5011416;28;19932;-72
2021/06/05 02:44:23;;;;;;;;;;;15.30;99.90;;;;;;5033313;28;19933;-72
2021/06/05 02:46:53;;;;;;;;;;;15.30;99.90;;;;;;5019581;28;19925;-72
2021/06/05 02:49:25;;;;;;;;;;;15.30;99.90;;;;;;5010310;28;19927;-72
2021/06/05 02:51:58;;;;;;;;;;;15.30;99.90;;;;;;5024200;28;19979;-72
2021/06/05 02:54:55;;;;;;;;;;;15.30;99.90;;;;;;5010958;28;19925;-72
2021/06/05 02:57:23;;;;;;;;;;;15.40;99.90;;;;;;5027476;28;19995;-72
2021/06/05 02:59:50;;;;;;;;;;;15.50;99.90;;;;;;5010648;28;20427;-72
2021/06/05 03:02:20;;;;;;;;;;;15.50;99.90;;;;;;5002343;28;20052;-73
2021/06/05 03:04:48;;;;;;;;;;;15.60;99.90;;;;;;5031654;28;19964;-72
2021/06/05 03:07:16;;;;;;;;;;;15.60;99.90;;;;;;5012298;28;19930;-71
2021/06/05 03:09:45;;;;;;;;;;;15.60;99.90;;;;;;5011023;28;19933;-72
2021/06/05 03:12:14;;;;;;;;;;;15.60;99.90;;;;;;5009540;28;19976;-71
2021/06/05 03:14:43;;;;;;;;;;;15.60;99.90;;;;;;5023389;28;19932;-71
2021/06/05 03:17:12;;;;;;;;;;;15.70;99.90;;;;;;5002314;28;19937;-71
2021/06/05 03:19:41;;;;;;;;;;;15.70;99.90;;;;;;5013520;28;19948;-72
2021/06/05 03:22:08;;;;;;;;;;;15.70;99.90;;;;;;5014320;28;19925;-71
2021/06/05 03:24:51;;;;;;;;;;;15.70;99.90;;;;;;5011127;28;19944;-71
2021/06/05 03:27:20;;;;;;;;;;;15.70;99.90;;;;;;4993118;28;20064;-71
2021/06/05 03:29:51;;;;;;;;;;;15.60;99.90;;;;;;5018296;28;19925;-71
2021/06/05 03:32:22;;;;;;;;;;;15.60;99.90;;;;;;5019569;28;20408;-71
2021/06/05 03:34:51;;;;;;;;;;;15.60;99.90;;;;;;4995560;28;19925;-72
2021/06/05 03:37:19;;;;;;;;;;;15.60;99.90;;;;;;5029424;28;20365;-71
2021/06/05 03:39:52;;;;;;;;;;;15.60;99.90;;;;;;5012296;28;19960;-71
2021/06/05 03:45:18;;;;;;;;;;;15.60;99.90;;;;;;5003728;28;19940;-72
2021/06/05 03:47:47;;;;;;;;;;;15.80;99.90;;;;;;5010270;28;19983;-72
2021/06/05 03:50:21;;;;;;;;;;;15.90;99.90;;;;;;5034191;28;20344;-72
2021/06/05 03:52:50;;;;;;;;;;;16.00;99.90;;;;;;5019531;28;19925;-72
2021/06/05 03:55:21;;;;;;;;;;;16.10;99.90;;;;;;5024222;28;20367;-72
2021/06/05 03:57:48;;;;;;;;;;;16.20;99.90;;;;;;5012334;28;20029;-71
2021/06/05 04:00:18;;;;;;;;;;;16.20;99.90;;;;;;4998977;28;19956;-71
2021/06/05 04:02:47;;;;;;;;;;;16.20;99.90;;;;;;5019132;28;20344;-71
2021/06/05 04:05:16;;;;;;;;;;;16.30;99.90;;;;;;5007688;28;19932;-72
2021/06/05 04:07:45;;;;;;;;;;;16.30;99.90;;;;;;5022226;28;19947;-72
2021/06/05 04:10:13;;;;;;;;;;;16.40;99.90;;;;;;5010255;28;19936;-72
2021/06/05 04:12:41;;;;;;;;;;;16.50;99.90;;;;;;5030330;28;19987;-72
2021/06/05 04:15:12;;;;;;;;;;;16.60;99.90;;;;;;5009283;28;20141;-71
2021/06/05 04:17:41;;;;;;;;;;;16.60;99.90;;;;;;5031224;28;19925;-71
2021/06/05 04:20:11;;;;;;;;;;;16.70;99.90;;;;;;5030851;28;19955;-72
2021/06/05 04:22:39;;;;;;;;;;;16.70;99.90;;;;;;5029135;28;19929;-71
2021/06/05 04:25:09;;;;;;;;;;;16.70;99.90;;;;;;5024590;28;19925;-71
2021/06/05 04:27:37;;;;;;;;;;;16.60;99.90;;;;;;5031742;28;20011;-71
2021/06/05 04:30:06;;;;;;;;;;;16.60;99.90;;;;;;5005763;28;19932;-72
2021/06/05 04:32:33;;;;;;;;;;;16.60;99.90;;;;;;5010277;28;19925;-72
2021/06/05 04:35:01;;;;;;;;;;;16.60;99.90;;;;;;4993240;28;19983;-72
2021/06/05 04:37:29;;;;;;;;;;;16.70;99.90;;;;;;5027126;28;19995;-72
2021/06/05 04:39:57;;;;;;;;;;;16.80;99.90;;;;;;5028976;28;19929;-71
2021/06/05 04:42:32;;;;;;;;;;;16.90;99.90;;;;;;5011065;28;19980;-71
2021/06/05 04:45:00;;;;;;;;;;;17.00;99.90;;;;;;5029993;28;20013;-72
2021/06/05 04:47:27;;;;;;;;;;;17.10;99.90;;;;;;5029073;28;19925;-72
2021/06/05 04:49:55;;;;;;;;;;;17.20;99.90;;;;;;5036059;28;19971;-71
2021/06/05 04:52:24;;;;;;;;;;;17.40;99.90;;;;;;5010679;28;19932;-71
2021/06/05 04:54:51;;;;;;;;;;;17.40;99.90;;;;;;5032394;28;19932;-72
2021/06/05 04:57:19;;;;;;;;;;;17.50;99.90;;;;;;5025000;28;19930;-71
2021/06/05 04:59:49;;;;;;;;;;;17.50;99.90;;;;;;5013611;28;19933;-72
2021/06/05 05:02:16;;;;;;;;;;;17.60;99.90;;;;;;5031133;28;20372;-72
2021/06/05 05:04:44;;;;;;;;;;;17.70;99.90;;;;;;5013759;28;19995;-72
2021/06/05 05:07:12;;;;;;;;;;;17.60;99.90;;;;;;5028893;28;19925;-72
2021/06/05 05:09:40;;;;;;;;;;;17.60;99.90;;;;;;5014104;28;19929;-72
2021/06/05 05:12:12;;;;;;;;;;;17.70;99.90;;;;;;5018792;28;20296;-72
2021/06/05 05:14:39;;;;;;;;;;;17.80;99.90;;;;;;5035003;28;20012;-72
2021/06/05 05:17:09;;;;;;;;;;;17.90;99.90;;;;;;5031339;28;20122;-72
2021/06/05 05:19:37;;;;;;;;;;;18.00;99.90;;;;;;5028890;28;20428;-72
2021/06/05 05:22:05;;;;;;;;;;;18.00;99.90;;;;;;5036532;28;19953;-71
2021/06/05 05:24:33;;;;;;;;;;;18.20;99.90;;;;;;5024419;28;19932;-72
2021/06/05 05:27:01;;;;;;;;;;;18.20;99.90;;;;;;5014370;28;20391;-72
2021/06/05 05:29:29;;;;;;;;;;;18.40;99.90;;;;;;5038419;28;20441;-72
2021/06/05 05:31:57;;;;;;;;;;;18.50;99.90;;;;;;5030991;28;19925;-71
2021/06/05 05:34:26;;;;;;;;;;;18.70;99.90;;;;;;5013764;28;19960;-72
2021/06/05 05:36:54;;;;;;;;;;;18.80;99.90;;;;;;5019670;28;20864;-74
2021/06/05 05:39:22;;;;;;;;;;;18.90;99.90;;;;;;5028902;28;19968;-72
2021/06/05 05:41:50;;;;;;;;;;;19.00;99.90;;;;;;5018559;28;20484;-72
2021/06/05 05:44:21;;;;;;;;;;;19.10;99.90;;;;;;5007551;28;20038;-72
2021/06/05 05:46:49;;;;;;;;;;;19.30;99.90;;;;;;5024548;28;20472;-72
2021/06/05 05:49:17;;;;;;;;;;;19.20;99.90;;;;;;5029002;28;20399;-72
2021/06/05 05:51:46;;;;;;;;;;;19.20;99.90;;;;;;5012875;28;20027;-72
2021/06/05 05:54:14;;;;;;;;;;;19.40;99.90;;;;;;5016660;28;19925;-72
2021/06/05 05:56:41;;;;;;;;;;;19.50;99.90;;;;;;4997930;28;20408;-72
2021/06/05 05:59:11;;;;;;;;;;;19.70;99.90;;;;;;5029934;28;19933;-73
2021/06/05 06:02:03;;;;;;;;;;;19.90;99.90;;;;;;4993822;28;19929;-72
2021/06/05 06:04:32;;;;;;;;;;;20.20;99.90;;;;;;5027477;28;20008;-72
2021/06/05 06:07:01;;;;;;;;;;;20.40;99.90;;;;;;5016248;28;20035;-72
2021/06/05 06:09:29;;;;;;;;;;;20.60;99.90;;;;;;5009333;28;19961;-72
2021/06/05 06:11:57;;;;;;;;;;;20.90;99.90;;;;;;5020351;28;19932;-72
2021/06/05 06:14:24;;;;;;;;;;;21.00;99.90;;;;;;5034385;28;19925;-72
2021/06/05 06:16:52;;;;;;;;;;;20.90;99.90;;;;;;5021832;28;19991;-72
2021/06/05 06:19:20;;;;;;;;;;;20.90;99.90;;;;;;5028736;28;19980;-72
2021/06/05 06:21:48;;;;;;;;;;;21.00;99.90;;;;;;5049814;28;20389;-72
2021/06/05 06:24:41;;;;;;;;;;;21.30;99.90;;;;;;5031022;28;19994;-72
2021/06/05 06:27:09;;;;;;;;;;;21.80;99.90;;;;;;5046573;28;19955;-72
2021/06/05 06:29:39;;;;;;;;;;;22.00;99.90;;;;;;5017293;28;20331;-72
2021/06/05 06:32:08;;;;;;;;;;;22.40;99.90;;;;;;5010171;28;19926;-72
2021/06/05 06:34:35;;;;;;;;;;;22.90;99.90;;;;;;5040194;28;19933;-72
2021/06/05 06:37:04;;;;;;;;;;;23.30;99.90;;;;;;5043221;28;20422;-72
2021/06/05 06:39:35;;;;;;;;;;;23.40;99.90;;;;;;5041807;28;20201;-72
2021/06/05 06:42:28;;;;;;;;;;;23.60;99.90;;;;;;5005239;28;20016;-72
2021/06/05 06:44:57;;;;;;;;;;;24.00;99.90;;;;;;5014990;28;19940;-72
2021/06/05 06:47:25;;;;;;;;;;;24.40;99.90;;;;;;5024445;28;20300;-71
2021/06/05 06:49:53;;;;;;;;;;;24.60;99.90;;;;;;5040504;28;20035;-72
2021/06/05 06:52:24;;;;;;;;;;;24.90;99.90;;;;;;5018323;28;19933;-72
2021/06/05 06:54:53;;;;;;;;;;;24.80;99.90;;;;;;5011132;28;19979;-71
2021/06/05 06:57:21;;;;;;;;;;;25.20;99.90;;;;;;5029305;28;19952;-73
2021/06/05 06:59:50;;;;;;;;;;;25.30;99.90;;;;;;5018197;28;19925;-72
2021/06/05 07:02:17;;;;;;;;;;;24.80;99.90;;;;;;5017703;28;19955;-73
2021/06/05 07:04:45;;;;;;;;;;;24.30;99.90;;;;;;5027109;28;19928;-72
2021/06/05 07:07:12;;;;;;;;;;;23.70;99.90;;;;;;5006194;28;19932;-73
2021/06/05 07:09:40;;;;;;;;;;;23.40;99.90;;;;;;5023948;28;19933;-73
2021/06/05 07:12:13;;;;;;;;;;;22.90;99.90;;;;;;4998386;28;19925;-73
2021/06/05 07:14:41;;;;;;;;;;;22.50;99.90;;;;;;5011601;28;19935;-73
2021/06/05 07:17:10;;;;;;;;;;;21.90;99.90;;;;;;5017631;28;19957;-72
2021/06/05 07:19:37;;;;;;;;;;;21.50;99.90;;;;;;5033272;28;19980;-72
2021/06/05 07:24:57;;;;;;;;;;;21.30;99.90;;;;;;5026039;28;19926;-72
2021/06/05 07:27:24;;;;;;;;;;;21.10;99.90;;;;;;5013210;28;19976;-72
2021/06/05 07:29:52;;;;;;;;;;;21.20;99.90;;;;;;5026295;28;19925;-72
2021/06/05 07:32:25;;;;;;;;;;;21.30;99.90;;;;;;5028258;28;20269;-71
2021/06/05 07:34:53;;;;;;;;;;;21.50;99.90;;;;;;5029290;28;19925;-71
2021/06/05 07:37:20;;;;;;;;;;;21.50;99.90;;;;;;5025093;28;19925;-71
2021/06/05 07:39:48;;;;;;;;;;;21.30;99.90;;;;;;5046194;28;20458;-72
2021/06/05 07:42:16;;;;;;;;;;;21.40;99.90;;;;;;5043643;28;20355;-73
2021/06/05 07:44:44;;;;;;;;;;;21.60;99.90;;;;;;5024222;28;19933;-71
2021/06/05 07:47:12;;;;;;;;;;;21.40;99.90;;;;;;5029977;28;19925;-72
2021/06/05 07:49:41;;;;;;;;;;;21.40;99.90;;;;;;5022015;28;19936;-72
2021/06/05 07:52:10;;;;;;;;;;;21.60;99.90;;;;;;5012102;28;19948;-72
2021/06/05 07:54:41;;;;;;;;;;;21.80;99.90;;;;;;5036970;28;20504;-72
2021/06/05 07:57:09;;;;;;;;;;;21.70;99.90;;;;;;5001281;28;19932;-72
2021/06/05 07:59:36;;;;;;;;;;;21.90;99.90;;;;;;5042028;28;19925;-72
2021/06/05 08:02:04;;;;;;;;;;;22.00;99.90;;;;;;4996694;28;20364;-72
2021/06/05 08:04:32;;;;;;;;;;;21.70;99.90;;;;;;5032376;28;19985;-72
2021/06/05 08:07:01;;;;;;;;;;;22.10;99.90;;;;;;5012254;28;19925;-72
2021/06/05 08:09:29;;;;;;;;;;;22.20;99.90;;;;;;5030880;28;20063;-72
2021/06/05 08:11:57;;;;;;;;;;;22.60;99.90;;;;;;5038398;28;19925;-72
2021/06/05 08:14:25;;;;;;;;;;;22.90;99.90;;;;;;5041859;28;19925;-72
2021/06/05 08:16:53;;;;;;;;;;;23.20;99.90;;;;;;5030413;28;19925;-72
2021/06/05 08:19:20;;;;;;;;;;;23.40;99.90;;;;;;5029443;28;19925;-72
2021/06/05 08:21:49;;;;;;;;;;;23.60;99.90;;;;;;5032890;28;19925;-72
2021/06/05 08:24:18;;;;;;;;;;;23.60;99.90;;;;;;5030884;28;19975;-72
2021/06/05 08:26:47;;;;;;;;;;;22.90;99.90;;;;;;5011618;28;19929;-72
2021/06/05 08:29:15;;;;;;;;;;;22.60;99.90;;;;;;5028472;28;20297;-72
2021/06/05 08:54:48;;;;;;;;;;;23.90;99.90;;;;;;5859308;23;19947;31
2021/06/05 09:22:02;;;;;;;;;;;29.50;92.80;;;;;;5016517;23;19922;-83
2021/06/05 09:24:51;;;;;;;;;;;31.40;89.50;;;;;;4973335;28;19926;-81
2021/06/05 09:27:23;;;;;;;;;;;30.20;88.10;;;;;;4959138;29;19926;-81
2021/06/05 09:29:56;;;;;;;;;;;29.20;91.70;;;;;;4969932;28;19933;-83
2021/06/05 09:32:37;;;;;;;;;;;29.40;91.10;;;;;;4938069;28;19930;-82
2021/06/05 09:35:26;;;;;;;;;;;29.40;91.40;;;;;;4976951;28;19926;-85
2021/06/05 09:38:19;;;;;;;;;;;28.90;91.10;;;;;;4975249;29;19927;-80
2021/06/05 09:47:35;;;;;;;;;;;27.70;93.30;;;;;;5487331;23;19910;-80
2021/06/05 09:53:34;;;;;;;;;;;27.10;93.10;;;;;;4938006;29;19931;-78
2021/06/05 09:56:26;;;;;;;;;;;27.60;92.60;;;;;;4936012;29;19953;-79
2021/06/05 09:59:03;;;;;;;;;;;27.80;91.80;;;;;;4937542;29;19927;-79
2021/06/05 10:02:05;;;;;;;;;;;27.40;91.30;;;;;;4932613;29;19927;-78
2021/06/05 10:05:02;;;;;;;;;;;27.30;92.60;;;;;;4932721;29;19935;-80
2021/06/05 10:08:19;;;;;;;;;;;27.20;92.60;;;;;;4933183;29;20049;-79
2021/06/05 10:11:23;;;;;;;;;;;27.40;92.50;;;;;;4932092;29;19938;-80
2021/06/05 10:14:28;;;;;;;;;;;28.10;91.90;;;;;;4922608;29;19915;-80
2021/06/05 10:17:14;;;;;;;;;;;28.40;90.90;;;;;;4920179;29;19931;-80
2021/06/05 10:20:33;;;;;;;;;;;29.10;89.80;;;;;;4903124;29;20172;-80
2021/06/05 10:24:02;;;;;;;;;;;31.80;82.50;;;;;;4931349;29;20781;-80
2021/06/05 10:30:30;;;;;;;;;;;31.90;76.60;;;;;;4916325;29;20113;-88
2021/06/05 10:33:34;;;;;;;;;;;32.10;72.90;;;;;;4924149;29;19931;-81
2021/06/05 10:36:16;;;;;;;;;;;30.40;76.00;;;;;;4929737;29;19934;-81
2021/06/05 10:46:56;;;;;;;;;;;26.30;90.00;;;;;;4937975;29;19938;-81
2021/06/05 10:50:35;;;;;;;;;;;25.90;90.00;;;;;;4975704;23;19933;-75
2021/06/05 10:53:07;;;;;;;;;;;25.60;92.00;;;;;;4975818;28;19926;-75
2021/06/05 10:55:40;;;;;;;;;;;25.10;92.70;;;;;;4955326;28;19933;-75
2021/06/05 10:58:20;;;;;;;;;;;24.70;93.70;;;;;;4975541;28;19926;-75
2021/06/05 11:00:51;;;;;;;;;;;24.30;95.40;;;;;;4949607;28;19933;-75
2021/06/05 11:03:46;;;;;;;;;;;24.10;96.60;;;;;;4957400;28;20275;-75
2021/06/05 11:06:16;;;;;;;;;;;23.90;97.40;;;;;;4920407;28;19926;-75
2021/06/05 11:09:24;;;;;;;;;;;23.80;98.00;;;;;;4974504;28;20392;-75
2021/06/05 11:11:52;;;;;;;;;;;23.70;98.10;;;;;;4973125;28;19969;-75
2021/06/05 11:14:35;;;;;;;;;;;23.70;98.40;;;;;;4975045;28;20018;-74
2021/06/05 11:17:21;;;;;;;;;;;23.70;98.40;;;;;;4965952;28;19926;-75
2021/06/05 11:19:51;;;;;;;;;;;23.80;98.50;;;;;;4928568;28;20334;-74
2021/06/05 11:22:22;;;;;;;;;;;23.80;98.30;;;;;;4974275;28;19933;-74
2021/06/05 11:25:04;;;;;;;;;;;23.80;98.60;;;;;;4967670;28;19984;-74
2021/06/05 11:27:44;;;;;;;;;;;23.80;98.70;;;;;;4964532;28;19937;-74
2021/06/05 11:30:36;;;;;;;;;;;23.70;98.20;;;;;;4951041;28;19926;-74
2021/06/05 11:33:06;;;;;;;;;;;23.60;98.80;;;;;;4965508;28;20457;-74
2021/06/05 11:35:40;;;;;;;;;;;23.60;99.20;;;;;;4947822;28;20021;-72
2021/06/05 11:38:11;;;;;;;;;;;23.70;99.10;;;;;;4972828;28;20281;-72
2021/06/05 11:40:49;;;;;;;;;;;23.70;99.30;;;;;;4968939;28;20197;-72
2021/06/05 11:43:21;;;;;;;;;;;23.60;99.40;;;;;;4958923;28;20202;-72
2021/06/05 11:45:57;;;;;;;;;;;23.60;99.50;;;;;;4950254;28;19926;-72
2021/06/05 11:48:46;;;;;;;;;;;23.60;99.90;;;;;;4974288;28;19989;-72
2021/06/05 11:51:16;;;;;;;;;;;23.40;99.90;;;;;;4967102;28;20382;-72
2021/06/05 11:53:46;;;;;;;;;;;23.10;99.90;;;;;;4975464;28;19933;-73
2021/06/05 11:56:14;;;;;;;;;;;23.00;99.90;;;;;;4955350;28;19977;-72
2021/06/05 11:58:42;;;;;;;;;;;23.00;99.90;;;;;;4974047;28;20492;-72
2021/06/05 12:01:12;;;;;;;;;;;23.00;99.90;;;;;;4952591;28;19930;-72
2021/06/05 12:03:48;;;;;;;;;;;23.00;99.90;;;;;;4964603;28;19949;-72
2021/06/05 12:09:15;;;;;;;;;;;23.10;99.90;;;;;;4969837;28;19926;-72
2021/06/05 12:11:46;;;;;;;;;;;23.10;99.90;;;;;;4950297;28;20174;-72
2021/06/05 12:14:18;;;;;;;;;;;23.20;99.90;;;;;;4949691;28;20752;-72
2021/06/05 12:16:48;;;;;;;;;;;23.30;99.90;;;;;;4945358;28;19930;-72
2021/06/05 12:19:16;;;;;;;;;;;23.40;99.90;;;;;;4935113;28;19997;-72
2021/06/05 12:21:44;;;;;;;;;;;23.60;99.90;;;;;;4953748;28;20282;-72
2021/06/05 12:24:17;;;;;;;;;;;23.60;99.90;;;;;;4956107;28;19934;-73
2021/06/05 12:26:48;;;;;;;;;;;23.70;99.90;;;;;;4961469;28;20653;-72
2021/06/05 12:29:20;;;;;;;;;;;23.80;99.90;;;;;;4966176;28;19933;-72
2021/06/05 12:31:47;;;;;;;;;;;23.60;99.90;;;;;;4962556;28;19973;-72
2021/06/05 12:34:26;;;;;;;;;;;23.60;99.90;;;;;;4967923;28;20029;-71
2021/06/05 12:36:55;;;;;;;;;;;23.60;99.90;;;;;;4964620;28;19926;-72
2021/06/05 12:39:41;;;;;;;;;;;23.60;99.90;;;;;;4962127;28;19930;-73
2021/06/05 12:42:14;;;;;;;;;;;23.70;99.90;;;;;;4965142;28;19934;-72
2021/06/05 12:44:42;;;;;;;;;;;23.80;99.90;;;;;;4956099;28;19954;-72
2021/06/05 12:47:11;;;;;;;;;;;23.60;99.90;;;;;;4969543;28;19933;-72
2021/06/05 12:49:42;;;;;;;;;;;23.40;99.90;;;;;;4971988;28;20480;-71
2021/06/05 12:52:13;;;;;;;;;;;23.40;99.90;;;;;;4972209;28;19926;-71
2021/06/05 12:54:47;;;;;;;;;;;23.60;99.90;;;;;;4977112;28;19989;-72
2021/06/05 12:57:22;;;;;;;;;;;23.70;99.90;;;;;;4962006;28;20242;-73
2021/06/05 12:59:50;;;;;;;;;;;23.90;99.80;;;;;;4972242;28;19926;-71
2021/06/05 13:02:18;;;;;;;;;;;24.00;99.50;;;;;;4959511;28;19926;-71
2021/06/05 13:04:46;;;;;;;;;;;24.30;99.90;;;;;;4981014;28;19933;-71
2021/06/05 13:07:14;;;;;;;;;;;24.60;99.60;;;;;;4978348;28;19926;-71
2021/06/05 13:09:43;;;;;;;;;;;25.00;99.60;;;;;;4979661;28;19981;-70
2021/06/05 13:12:25;;;;;;;;;;;25.40;98.70;;;;;;4981699;28;20337;-71
2021/06/05 13:15:05;;;;;;;;;;;25.70;97.90;;;;;;4976264;28;20378;-71
2021/06/05 13:17:33;;;;;;;;;;;25.80;98.20;;;;;;4971092;28;19950;-70
2021/06/05 13:20:13;;;;;;;;;;;25.80;98.40;;;;;;4975177;28;19926;-71
2021/06/05 13:22:41;;;;;;;;;;;25.60;99.50;;;;;;4956530;28;19926;-71
2021/06/05 13:25:11;;;;;;;;;;;25.40;99.80;;;;;;4981277;28;20389;-71
2021/06/05 13:27:41;;;;;;;;;;;25.30;99.90;;;;;;4953979;28;19962;-70
2021/06/05 13:30:21;;;;;;;;;;;25.20;99.90;;;;;;4954200;28;19926;-70
2021/06/05 13:32:50;;;;;;;;;;;25.20;99.90;;;;;;4974006;28;19976;-70
2021/06/05 13:35:20;;;;;;;;;;;25.40;99.90;;;;;;4968963;28;20013;-70
2021/06/05 13:37:52;;;;;;;;;;;25.50;99.90;;;;;;4974833;28;19926;-70
2021/06/05 13:40:20;;;;;;;;;;;25.70;99.90;;;;;;4955135;28;19969;-71
2021/06/05 13:42:49;;;;;;;;;;;26.00;99.90;;;;;;4962710;28;19930;-71
2021/06/05 13:45:18;;;;;;;;;;;26.00;99.70;;;;;;4968055;28;19953;-71
2021/06/05 13:47:47;;;;;;;;;;;26.30;98.50;;;;;;4954591;28;19934;-71
2021/06/05 13:50:25;;;;;;;;;;;26.60;97.70;;;;;;4955615;28;20398;-70
2021/06/05 13:52:54;;;;;;;;;;;26.50;97.60;;;;;;4975153;28;20025;-70
2021/06/05 13:55:24;;;;;;;;;;;26.70;96.90;;;;;;4969320;28;20391;-70
2021/06/05 13:57:53;;;;;;;;;;;27.10;95.90;;;;;;4958362;28;19926;-70
2021/06/05 14:00:21;;;;;;;;;;;27.00;96.00;;;;;;4969683;28;20076;-70
2021/06/05 14:02:53;;;;;;;;;;;26.40;96.40;;;;;;4975309;28;19926;-71
2021/06/05 14:05:21;;;;;;;;;;;26.20;96.60;;;;;;4975731;28;20297;-71
2021/06/05 14:07:54;;;;;;;;;;;25.80;96.60;;;;;;4967195;28;20390;-70
2021/06/05 14:10:23;;;;;;;;;;;26.10;95.60;;;;;;4973123;28;19926;-71
2021/06/05 14:12:51;;;;;;;;;;;26.00;95.60;;;;;;4972657;28;19934;-71
2021/06/05 14:15:21;;;;;;;;;;;26.10;95.50;;;;;;4969685;28;20306;-70
2021/06/05 14:17:48;;;;;;;;;;;25.50;96.30;;;;;;4972793;28;20290;-70
2021/06/05 14:20:20;;;;;;;;;;;25.50;96.70;;;;;;4982220;28;19930;-71
2021/06/05 14:22:48;;;;;;;;;;;25.80;96.20;;;;;;4981738;28;19981;-70
2021/06/05 14:25:17;;;;;;;;;;;26.20;95.80;;;;;;4966738;28;20419;-70
2021/06/05 14:27:46;;;;;;;;;;;26.20;95.80;;;;;;4974644;28;19934;-70
2021/06/05 14:30:17;;;;;;;;;;;26.20;95.90;;;;;;4966846;28;19926;-71
2021/06/05 14:32:45;;;;;;;;;;;26.10;96.20;;;;;;4965109;28;20327;-73
2021/06/05 14:35:13;;;;;;;;;;;26.00;96.20;;;;;;4974412;28;19961;-74
2021/06/05 14:40:45;;;;;;;;;;;25.20;96.10;;;;;;4912587;29;19987;-72
2021/06/05 14:43:13;;;;;;;;;;;25.30;95.90;;;;;;4907089;29;19950;-73
2021/06/05 14:45:41;;;;;;;;;;;25.40;94.60;;;;;;4910893;29;20052;-73
2021/06/05 14:48:09;;;;;;;;;;;25.30;92.50;;;;;;4917901;29;20022;-73
2021/06/05 14:50:38;;;;;;;;;;;25.40;91.40;;;;;;4919636;29;19937;-66
2021/06/05 14:53:06;;;;;;;;;;;25.60;92.80;;;;;;4920529;29;19927;-67
2021/06/05 14:55:39;;;;;;;;;;;25.70;93.20;;;;;;4922173;29;19934;-69
2021/06/05 14:58:08;;;;;;;;;;;26.10;94.00;;;;;;4914705;29;19935;-69
2021/06/05 15:00:36;;;;;;;;;;;26.50;92.60;;;;;;4907524;29;20000;-68
2021/06/05 15:03:04;;;;;;;;;;;26.30;92.60;;;;;;4915867;29;19927;-67
2021/06/05 15:05:33;;;;;;;;;;;26.70;93.10;;;;;;4914375;29;20057;-67
2021/06/05 15:08:01;;;;;;;;;;;27.20;93.20;;;;;;4910308;29;19927;-67
2021/06/05 15:10:30;;;;;;;;;;;27.40;92.80;;;;;;4914055;29;19927;-67
2021/06/05 15:12:57;;;;;;;;;;;27.10;93.70;;;;;;4916020;29;19974;-67
2021/06/05 15:15:28;;;;;;;;;;;27.20;92.70;;;;;;4899342;29;20429;-67
2021/06/05 15:17:56;;;;;;;;;;;27.00;92.90;;;;;;4914211;29;19935;-67
2021/06/05 15:20:24;;;;;;;;;;;26.80;93.10;;;;;;4913206;29;19927;-67
2021/06/05 15:22:52;;;;;;;;;;;26.50;93.60;;;;;;4908062;29;19931;-69
2021/06/05 15:25:24;;;;;;;;;;;26.40;93.60;;;;;;4903966;29;19931;-68
2021/06/05 15:27:52;;;;;;;;;;;26.50;94.20;;;;;;4907851;29;19937;-68
2021/06/05 15:30:22;;;;;;;;;;;26.50;93.30;;;;;;4898396;29;19927;-68
2021/06/05 15:32:52;;;;;;;;;;;26.50;93.90;;;;;;4907891;29;19927;-68
2021/06/05 15:35:20;;;;;;;;;;;26.60;93.90;;;;;;4984972;23;20142;-71
2021/06/05 15:37:50;;;;;;;;;;;26.60;93.90;;;;;;4994715;28;20041;-71
2021/06/05 15:40:19;;;;;;;;;;;26.50;93.70;;;;;;4993921;28;19926;-71
2021/06/05 15:42:47;;;;;;;;;;;26.30;94.30;;;;;;4977232;28;19936;-70
2021/06/05 15:45:16;;;;;;;;;;;26.30;94.30;;;;;;4987847;28;19930;-70
2021/06/05 15:47:43;;;;;;;;;;;26.20;94.40;;;;;;4996049;28;19996;-71
2021/06/05 15:50:14;;;;;;;;;;;26.50;93.60;;;;;;4994374;28;19929;-70
2021/06/05 15:52:42;;;;;;;;;;;26.50;93.10;;;;;;5007407;28;19914;-71
2021/06/05 15:55:11;;;;;;;;;;;26.50;92.90;;;;;;4977111;28;19922;-71
2021/06/05 15:57:40;;;;;;;;;;;26.30;92.80;;;;;;4991797;28;19930;-70
2021/06/05 16:00:12;;;;;;;;;;;26.30;92.80;;;;;;4996448;28;19993;-71
2021/06/05 16:02:40;;;;;;;;;;;26.30;92.60;;;;;;5004323;28;20440;-70
2021/06/05 16:05:10;;;;;;;;;;;26.30;93.00;;;;;;5008314;28;19918;-71
2021/06/05 16:07:42;;;;;;;;;;;26.20;93.10;;;;;;4998309;28;19993;-70
2021/06/05 16:10:11;;;;;;;;;;;26.20;93.20;;;;;;5007139;28;19925;-70